sensor_id;sensor_type;location;lat;lon;timestamp;temperature;humidity
45803;DHT22;31504;51.716;9.184;2024-02-23T00:00:03;21.40;51.10
45803;DHT22;31504;51.716;9.184;2024-02-23T00:03:05;21.50;51.10
45803;DHT22;31504;51.716;9.184;2024-02-23T00:06:06;21.40;51.00
45803;DHT22;31504;51.716;9.184;2024-02-23T00:09:08;21.50;50.90
45803;DHT22;31504;51.716;9.184;2024-02-23T00:12:09;21.50;50.90
45803;DHT22;31504;51.716;9.184;2024-02-23T00:15:10;21.50;50.90
45803;DHT22;31504;51.716;9.184;2024-02-23T00:18:10;21.40;50.80
45803;DHT22;31504;51.716;9.184;2024-02-23T00:21:13;21.40;50.80
45803;DHT22;31504;51.716;9.184;2024-02-23T00:24:13;21.40;50.80
45803;DHT22;31504;51.716;9.184;2024-02-23T00:27:16;21.40;50.90
45803;DHT22;31504;51.716;9.184;2024-02-23T00:30:17;21.40;50.70
45803;DHT22;31504;51.716;9.184;2024-02-23T00:33:17;21.40;50.70
45803;DHT22;31504;51.716;9.184;2024-02-23T00:36:17;21.40;50.60
45803;DHT22;31504;51.716;9.184;2024-02-23T00:39:18;21.40;50.50
45803;DHT22;31504;51.716;9.184;2024-02-23T00:42:18;21.50;50.40
45803;DHT22;31504;51.716;9.184;2024-02-23T00:45:20;21.40;50.30
45803;DHT22;31504;51.716;9.184;2024-02-23T00:48:21;21.50;50.30
45803;DHT22;31504;51.716;9.184;2024-02-23T00:51:22;21.50;50.30
45803;DHT22;31504;51.716;9.184;2024-02-23T00:54:22;21.40;50.40
45803;DHT22;31504;51.716;9.184;2024-02-23T00:57:23;21.40;50.30
45803;DHT22;31504;51.716;9.184;2024-02-23T01:00:29;21.40;50.30
45803;DHT22;31504;51.716;9.184;2024-02-23T01:03:31;21.30;50.20
45803;DHT22;31504;51.716;9.184;2024-02-23T01:06:35;21.30;50.20
45803;DHT22;31504;51.716;9.184;2024-02-23T01:09:35;21.20;50.70
45803;DHT22;31504;51.716;9.184;2024-02-23T01:12:36;21.30;50.30
45803;DHT22;31504;51.716;9.184;2024-02-23T01:15:38;21.30;50.10
45803;DHT22;31504;51.716;9.184;2024-02-23T01:18:41;21.30;50.10
45803;DHT22;31504;51.716;9.184;2024-02-23T01:21:43;21.30;50.00
45803;DHT22;31504;51.716;9.184;2024-02-23T01:24:45;21.30;49.80
45803;DHT22;31504;51.716;9.184;2024-02-23T01:27:45;21.30;49.80
45803;DHT22;31504;51.716;9.184;2024-02-23T01:30:46;21.30;49.80
45803;DHT22;31504;51.716;9.184;2024-02-23T01:33:47;21.20;50.00
45803;DHT22;31504;51.716;9.184;2024-02-23T01:36:49;21.20;49.80
45803;DHT22;31504;51.716;9.184;2024-02-23T01:39:50;21.20;50.00
45803;DHT22;31504;51.716;9.184;2024-02-23T01:43:06;21.20;49.80
45803;DHT22;31504;51.716;9.184;2024-02-23T01:46:06;21.30;49.70
45803;DHT22;31504;51.716;9.184;2024-02-23T01:49:08;21.20;49.70
45803;DHT22;31504;51.716;9.184;2024-02-23T01:52:09;21.30;49.50
45803;DHT22;31504;51.716;9.184;2024-02-23T01:55:09;21.20;50.60
45803;DHT22;31504;51.716;9.184;2024-02-23T01:58:10;21.10;49.70
45803;DHT22;31504;51.716;9.184;2024-02-23T02:01:11;21.20;49.60
45803;DHT22;31504;51.716;9.184;2024-02-23T02:04:12;21.20;49.40
45803;DHT22;31504;51.716;9.184;2024-02-23T02:07:13;21.30;49.20
45803;DHT22;31504;51.716;9.184;2024-02-23T02:10:13;21.30;49.10
45803;DHT22;31504;51.716;9.184;2024-02-23T02:13:14;21.30;49.00
45803;DHT22;31504;51.716;9.184;2024-02-23T02:16:15;21.30;48.90
45803;DHT22;31504;51.716;9.184;2024-02-23T02:19:21;21.30;49.00
45803;DHT22;31504;51.716;9.184;2024-02-23T02:22:21;21.30;49.00
45803;DHT22;31504;51.716;9.184;2024-02-23T02:25:22;21.30;48.90
45803;DHT22;31504;51.716;9.184;2024-02-23T02:28:24;21.30;48.90
45803;DHT22;31504;51.716;9.184;2024-02-23T02:31:25;21.30;48.90
45803;DHT22;31504;51.716;9.184;2024-02-23T02:34:27;21.30;48.80
45803;DHT22;31504;51.716;9.184;2024-02-23T02:37:29;21.30;48.80
45803;DHT22;31504;51.716;9.184;2024-02-23T02:40:29;21.30;48.80
45803;DHT22;31504;51.716;9.184;2024-02-23T02:43:31;21.30;48.70
45803;DHT22;31504;51.716;9.184;2024-02-23T02:46:32;21.30;48.70
45803;DHT22;31504;51.716;9.184;2024-02-23T02:49:32;21.30;48.60
45803;DHT22;31504;51.716;9.184;2024-02-23T02:52:33;21.40;48.60
45803;DHT22;31504;51.716;9.184;2024-02-23T02:55:33;21.40;48.60
45803;DHT22;31504;51.716;9.184;2024-02-23T02:58:35;21.30;48.50
45803;DHT22;31504;51.716;9.184;2024-02-23T03:01:35;21.30;48.60
45803;DHT22;31504;51.716;9.184;2024-02-23T03:04:36;21.30;48.60
45803;DHT22;31504;51.716;9.184;2024-02-23T03:07:36;21.30;48.60
45803;DHT22;31504;51.716;9.184;2024-02-23T03:10:37;21.30;48.60
45803;DHT22;31504;51.716;9.184;2024-02-23T03:13:37;21.30;48.50
45803;DHT22;31504;51.716;9.184;2024-02-23T03:16:38;21.30;48.50
45803;DHT22;31504;51.716;9.184;2024-02-23T03:19:39;21.40;48.50
45803;DHT22;31504;51.716;9.184;2024-02-23T03:22:40;21.40;48.50
45803;DHT22;31504;51.716;9.184;2024-02-23T03:25:40;21.30;48.30
45803;DHT22;31504;51.716;9.184;2024-02-23T03:28:41;21.30;48.30
45803;DHT22;31504;51.716;9.184;2024-02-23T03:31:41;21.40;48.30
45803;DHT22;31504;51.716;9.184;2024-02-23T03:34:42;21.30;48.30
45803;DHT22;31504;51.716;9.184;2024-02-23T03:37:44;21.30;48.30
45803;DHT22;31504;51.716;9.184;2024-02-23T03:40:46;21.30;48.30
45803;DHT22;31504;51.716;9.184;2024-02-23T03:43:46;21.30;48.30
45803;DHT22;31504;51.716;9.184;2024-02-23T03:46:47;21.30;48.20
45803;DHT22;31504;51.716;9.184;2024-02-23T03:49:47;21.40;48.30
45803;DHT22;31504;51.716;9.184;2024-02-23T03:52:48;21.40;48.20
45803;DHT22;31504;51.716;9.184;2024-02-23T03:55:48;21.30;48.10
45803;DHT22;31504;51.716;9.184;2024-02-23T03:58:48;21.40;48.20
45803;DHT22;31504;51.716;9.184;2024-02-23T04:01:49;21.30;48.10
45803;DHT22;31504;51.716;9.184;2024-02-23T04:04:49;21.40;48.10
45803;DHT22;31504;51.716;9.184;2024-02-23T04:07:50;21.30;48.00
45803;DHT22;31504;51.716;9.184;2024-02-23T04:10:51;21.30;48.00
45803;DHT22;31504;51.716;9.184;2024-02-23T04:13:51;21.30;48.00
45803;DHT22;31504;51.716;9.184;2024-02-23T04:16:51;21.30;48.00
45803;DHT22;31504;51.716;9.184;2024-02-23T04:19:53;21.30;48.00
45803;DHT22;31504;51.716;9.184;2024-02-23T04:22:53;21.30;48.00
45803;DHT22;31504;51.716;9.184;2024-02-23T04:25:56;21.40;47.90
45803;DHT22;31504;51.716;9.184;2024-02-23T04:28:56;21.40;47.90
45803;DHT22;31504;51.716;9.184;2024-02-23T04:31:57;21.40;47.80
45803;DHT22;31504;51.716;9.184;2024-02-23T04:34:57;21.40;47.80
45803;DHT22;31504;51.716;9.184;2024-02-23T04:37:58;21.40;47.80
45803;DHT22;31504;51.716;9.184;2024-02-23T04:41:02;21.30;47.80
45803;DHT22;31504;51.716;9.184;2024-02-23T04:44:03;21.40;47.80
45803;DHT22;31504;51.716;9.184;2024-02-23T04:47:03;21.30;47.80
45803;DHT22;31504;51.716;9.184;2024-02-23T04:50:04;21.30;47.80
45803;DHT22;31504;51.716;9.184;2024-02-23T04:53:04;21.40;47.90
45803;DHT22;31504;51.716;9.184;2024-02-23T04:56:05;21.40;48.00
45803;DHT22;31504;51.716;9.184;2024-02-23T04:59:05;21.40;47.90
45803;DHT22;31504;51.716;9.184;2024-02-23T05:02:06;21.40;47.90
45803;DHT22;31504;51.716;9.184;2024-02-23T05:05:06;21.40;47.90
45803;DHT22;31504;51.716;9.184;2024-02-23T05:08:08;21.40;48.00
45803;DHT22;31504;51.716;9.184;2024-02-23T05:11:08;21.40;48.00
45803;DHT22;31504;51.716;9.184;2024-02-23T05:14:10;21.40;48.00
45803;DHT22;31504;51.716;9.184;2024-02-23T05:17:10;21.40;48.10
45803;DHT22;31504;51.716;9.184;2024-02-23T05:20:11;21.30;48.00
45803;DHT22;31504;51.716;9.184;2024-02-23T05:23:12;21.30;48.10
45803;DHT22;31504;51.716;9.184;2024-02-23T05:26:12;21.30;48.10
45803;DHT22;31504;51.716;9.184;2024-02-23T05:29:12;21.40;48.10
45803;DHT22;31504;51.716;9.184;2024-02-23T05:32:17;21.40;48.00
45803;DHT22;31504;51.716;9.184;2024-02-23T05:35:19;21.40;48.00
45803;DHT22;31504;51.716;9.184;2024-02-23T05:38:20;21.40;48.10
45803;DHT22;31504;51.716;9.184;2024-02-23T05:41:21;21.40;48.00
45803;DHT22;31504;51.716;9.184;2024-02-23T05:44:21;21.40;48.00
45803;DHT22;31504;51.716;9.184;2024-02-23T05:47:22;21.40;48.10
45803;DHT22;31504;51.716;9.184;2024-02-23T05:50:23;21.40;48.20
45803;DHT22;31504;51.716;9.184;2024-02-23T05:53:25;21.30;48.20
45803;DHT22;31504;51.716;9.184;2024-02-23T05:56:25;21.30;48.20
45803;DHT22;31504;51.716;9.184;2024-02-23T05:59:26;21.40;48.20
45803;DHT22;31504;51.716;9.184;2024-02-23T06:02:27;21.40;48.20
45803;DHT22;31504;51.716;9.184;2024-02-23T06:05:28;21.40;48.10
45803;DHT22;31504;51.716;9.184;2024-02-23T06:08:28;21.40;48.00
45803;DHT22;31504;51.716;9.184;2024-02-23T06:11:29;21.40;48.00
45803;DHT22;31504;51.716;9.184;2024-02-23T06:14:29;21.40;48.10
45803;DHT22;31504;51.716;9.184;2024-02-23T06:17:29;21.40;48.10
45803;DHT22;31504;51.716;9.184;2024-02-23T06:20:30;21.40;48.00
45803;DHT22;31504;51.716;9.184;2024-02-23T06:23:30;21.40;47.90
45803;DHT22;31504;51.716;9.184;2024-02-23T06:26:31;21.30;47.90
45803;DHT22;31504;51.716;9.184;2024-02-23T06:29:32;21.40;47.90
45803;DHT22;31504;51.716;9.184;2024-02-23T06:32:32;21.40;47.80
45803;DHT22;31504;51.716;9.184;2024-02-23T06:35:32;21.40;47.70
45803;DHT22;31504;51.716;9.184;2024-02-23T06:38:34;21.40;47.70
45803;DHT22;31504;51.716;9.184;2024-02-23T06:41:34;21.40;47.70
45803;DHT22;31504;51.716;9.184;2024-02-23T06:44:34;21.40;47.80
45803;DHT22;31504;51.716;9.184;2024-02-23T06:47:35;21.40;47.80
45803;DHT22;31504;51.716;9.184;2024-02-23T06:50:35;21.40;47.80
45803;DHT22;31504;51.716;9.184;2024-02-23T06:53:37;21.40;47.70
45803;DHT22;31504;51.716;9.184;2024-02-23T06:56:38;21.40;47.70
45803;DHT22;31504;51.716;9.184;2024-02-23T06:59:38;21.30;47.70
45803;DHT22;31504;51.716;9.184;2024-02-23T07:02:40;21.30;47.60
45803;DHT22;31504;51.716;9.184;2024-02-23T07:05:40;21.40;47.60
45803;DHT22;31504;51.716;9.184;2024-02-23T07:08:42;21.40;47.50
45803;DHT22;31504;51.716;9.184;2024-02-23T07:11:42;21.40;47.50
45803;DHT22;31504;51.716;9.184;2024-02-23T07:14:43;21.40;47.50
45803;DHT22;31504;51.716;9.184;2024-02-23T07:17:44;21.40;47.50
45803;DHT22;31504;51.716;9.184;2024-02-23T07:20:45;21.40;47.60
45803;DHT22;31504;51.716;9.184;2024-02-23T07:23:45;21.40;47.60
45803;DHT22;31504;51.716;9.184;2024-02-23T07:26:45;21.30;47.60
45803;DHT22;31504;51.716;9.184;2024-02-23T07:29:46;21.40;47.70
45803;DHT22;31504;51.716;9.184;2024-02-23T07:32:46;21.40;47.60
45803;DHT22;31504;51.716;9.184;2024-02-23T07:35:47;21.40;47.60
45803;DHT22;31504;51.716;9.184;2024-02-23T07:38:47;21.40;47.60
45803;DHT22;31504;51.716;9.184;2024-02-23T07:41:48;21.40;47.70
45803;DHT22;31504;51.716;9.184;2024-02-23T07:44:48;21.40;47.70
45803;DHT22;31504;51.716;9.184;2024-02-23T07:47:49;21.30;47.70
45803;DHT22;31504;51.716;9.184;2024-02-23T07:50:49;21.30;47.70
45803;DHT22;31504;51.716;9.184;2024-02-23T07:53:49;21.30;47.80
45803;DHT22;31504;51.716;9.184;2024-02-23T07:56:50;21.30;47.80
45803;DHT22;31504;51.716;9.184;2024-02-23T07:59:50;21.30;47.80
45803;DHT22;31504;51.716;9.184;2024-02-23T08:02:51;21.40;47.90
45803;DHT22;31504;51.716;9.184;2024-02-23T08:05:51;21.40;47.80
45803;DHT22;31504;51.716;9.184;2024-02-23T08:08:52;21.40;47.80
45803;DHT22;31504;51.716;9.184;2024-02-23T08:11:54;21.40;47.90
45803;DHT22;31504;51.716;9.184;2024-02-23T08:14:54;21.40;48.00
45803;DHT22;31504;51.716;9.184;2024-02-23T08:17:56;21.30;48.00
45803;DHT22;31504;51.716;9.184;2024-02-23T08:20:56;21.30;48.00
45803;DHT22;31504;51.716;9.184;2024-02-23T08:23:57;21.30;48.00
45803;DHT22;31504;51.716;9.184;2024-02-23T08:26:57;21.30;47.90
45803;DHT22;31504;51.716;9.184;2024-02-23T08:29:57;21.30;47.90
45803;DHT22;31504;51.716;9.184;2024-02-23T08:32:58;21.30;47.90
45803;DHT22;31504;51.716;9.184;2024-02-23T08:35:59;21.30;47.80
45803;DHT22;31504;51.716;9.184;2024-02-23T08:38:59;21.40;47.90
45803;DHT22;31504;51.716;9.184;2024-02-23T08:42:00;21.30;47.80
45803;DHT22;31504;51.716;9.184;2024-02-23T08:45:00;21.30;47.70
45803;DHT22;31504;51.716;9.184;2024-02-23T08:48:01;21.40;47.70
45803;DHT22;31504;51.716;9.184;2024-02-23T08:51:01;21.30;47.50
45803;DHT22;31504;51.716;9.184;2024-02-23T08:54:02;21.30;47.60
45803;DHT22;31504;51.716;9.184;2024-02-23T08:57:05;21.30;47.60
45803;DHT22;31504;51.716;9.184;2024-02-23T09:00:05;21.30;47.60
45803;DHT22;31504;51.716;9.184;2024-02-23T09:03:06;21.30;47.60
45803;DHT22;31504;51.716;9.184;2024-02-23T09:06:06;21.30;47.60
45803;DHT22;31504;51.716;9.184;2024-02-23T09:09:07;21.30;47.50
45803;DHT22;31504;51.716;9.184;2024-02-23T09:12:07;21.30;48.00
45803;DHT22;31504;51.716;9.184;2024-02-23T09:15:10;21.30;47.40
45803;DHT22;31504;51.716;9.184;2024-02-23T09:18:11;21.30;47.40
45803;DHT22;31504;51.716;9.184;2024-02-23T09:21:11;21.30;47.40
45803;DHT22;31504;51.716;9.184;2024-02-23T09:24:12;21.30;47.50
45803;DHT22;31504;51.716;9.184;2024-02-23T09:27:12;21.30;47.50
45803;DHT22;31504;51.716;9.184;2024-02-23T09:30:13;21.30;47.50
45803;DHT22;31504;51.716;9.184;2024-02-23T09:33:15;21.30;47.50
45803;DHT22;31504;51.716;9.184;2024-02-23T09:36:18;21.30;47.50
45803;DHT22;31504;51.716;9.184;2024-02-23T09:39:19;21.30;47.50
45803;DHT22;31504;51.716;9.184;2024-02-23T09:42:20;21.30;47.50
45803;DHT22;31504;51.716;9.184;2024-02-23T09:45:27;21.30;47.30
45803;DHT22;31504;51.716;9.184;2024-02-23T09:48:28;21.40;47.30
45803;DHT22;31504;51.716;9.184;2024-02-23T09:51:28;21.40;47.30
45803;DHT22;31504;51.716;9.184;2024-02-23T09:54:29;21.30;47.30
45803;DHT22;31504;51.716;9.184;2024-02-23T09:57:30;21.30;47.40
45803;DHT22;31504;51.716;9.184;2024-02-23T10:00:31;21.40;47.40
45803;DHT22;31504;51.716;9.184;2024-02-23T10:03:33;21.40;47.50
45803;DHT22;31504;51.716;9.184;2024-02-23T10:06:34;21.40;47.50
45803;DHT22;31504;51.716;9.184;2024-02-23T10:09:34;21.40;47.60
45803;DHT22;31504;51.716;9.184;2024-02-23T10:12:34;21.40;47.50
45803;DHT22;31504;51.716;9.184;2024-02-23T10:15:39;21.40;47.50
45803;DHT22;31504;51.716;9.184;2024-02-23T10:18:39;21.40;47.50
45803;DHT22;31504;51.716;9.184;2024-02-23T10:21:40;21.40;47.60
45803;DHT22;31504;51.716;9.184;2024-02-23T10:24:42;21.40;47.60
45803;DHT22;31504;51.716;9.184;2024-02-23T10:27:42;21.40;47.60
45803;DHT22;31504;51.716;9.184;2024-02-23T10:30:43;21.30;47.50
45803;DHT22;31504;51.716;9.184;2024-02-23T10:33:44;21.40;47.60
45803;DHT22;31504;51.716;9.184;2024-02-23T10:36:44;21.30;47.60
45803;DHT22;31504;51.716;9.184;2024-02-23T10:39:47;21.30;47.60
45803;DHT22;31504;51.716;9.184;2024-02-23T10:42:50;21.30;47.60
45803;DHT22;31504;51.716;9.184;2024-02-23T10:45:52;21.30;47.60
45803;DHT22;31504;51.716;9.184;2024-02-23T10:48:53;21.30;47.70
45803;DHT22;31504;51.716;9.184;2024-02-23T10:51:54;21.30;47.70
45803;DHT22;31504;51.716;9.184;2024-02-23T10:54:55;21.30;47.80
45803;DHT22;31504;51.716;9.184;2024-02-23T10:57:55;21.30;47.80
45803;DHT22;31504;51.716;9.184;2024-02-23T11:01:03;21.30;47.70
45803;DHT22;31504;51.716;9.184;2024-02-23T11:04:06;21.30;47.70
45803;DHT22;31504;51.716;9.184;2024-02-23T11:07:12;21.40;47.70
45803;DHT22;31504;51.716;9.184;2024-02-23T11:10:13;21.40;47.90
45803;DHT22;31504;51.716;9.184;2024-02-23T11:13:15;21.30;47.80
45803;DHT22;31504;51.716;9.184;2024-02-23T11:16:21;21.30;47.90
45803;DHT22;31504;51.716;9.184;2024-02-23T11:19:21;21.30;48.10
45803;DHT22;31504;51.716;9.184;2024-02-23T11:22:33;21.30;48.20
45803;DHT22;31504;51.716;9.184;2024-02-23T11:25:33;21.40;48.10
45803;DHT22;31504;51.716;9.184;2024-02-23T11:29:09;21.40;48.00
45803;DHT22;31504;51.716;9.184;2024-02-23T11:32:03;21.40;48.10
45803;DHT22;31504;51.716;9.184;2024-02-23T11:35:06;21.40;48.10
45803;DHT22;31504;51.716;9.184;2024-02-23T11:38:06;21.40;48.10
45803;DHT22;31504;51.716;9.184;2024-02-23T11:41:10;21.30;48.20
45803;DHT22;31504;51.716;9.184;2024-02-23T11:44:10;21.30;48.30
45803;DHT22;31504;51.716;9.184;2024-02-23T11:47:13;21.30;48.20
45803;DHT22;31504;51.716;9.184;2024-02-23T11:50:14;21.30;48.20
45803;DHT22;31504;51.716;9.184;2024-02-23T11:53:20;21.40;48.20
45803;DHT22;31504;51.716;9.184;2024-02-23T11:56:21;21.40;48.20
45803;DHT22;31504;51.716;9.184;2024-02-23T11:59:22;21.40;48.20
45803;DHT22;31504;51.716;9.184;2024-02-23T12:02:23;21.40;48.20
45803;DHT22;31504;51.716;9.184;2024-02-23T12:05:24;21.40;48.20
45803;DHT22;31504;51.716;9.184;2024-02-23T12:08:25;21.40;48.30
45803;DHT22;31504;51.716;9.184;2024-02-23T12:11:26;21.40;48.30
45803;DHT22;31504;51.716;9.184;2024-02-23T12:14:27;21.40;48.30
45803;DHT22;31504;51.716;9.184;2024-02-23T12:17:29;21.40;48.50
45803;DHT22;31504;51.716;9.184;2024-02-23T12:20:32;21.40;48.40
45803;DHT22;31504;51.716;9.184;2024-02-23T12:23:42;21.50;48.40
45803;DHT22;31504;51.716;9.184;2024-02-23T12:26:43;21.50;48.40
45803;DHT22;31504;51.716;9.184;2024-02-23T12:29:51;21.50;48.50
45803;DHT22;31504;51.716;9.184;2024-02-23T12:33:02;21.50;48.50
45803;DHT22;31504;51.716;9.184;2024-02-23T12:36:03;21.60;48.30
45803;DHT22;31504;51.716;9.184;2024-02-23T12:39:04;21.70;48.30
45803;DHT22;31504;51.716;9.184;2024-02-23T12:42:04;21.70;48.20
45803;DHT22;31504;51.716;9.184;2024-02-23T12:45:05;21.70;48.20
45803;DHT22;31504;51.716;9.184;2024-02-23T12:48:05;21.70;48.20
45803;DHT22;31504;51.716;9.184;2024-02-23T12:51:06;21.70;48.10
45803;DHT22;31504;51.716;9.184;2024-02-23T12:54:06;21.70;48.00
45803;DHT22;31504;51.716;9.184;2024-02-23T12:57:07;21.80;48.00
45803;DHT22;31504;51.716;9.184;2024-02-23T13:00:07;21.80;48.00
45803;DHT22;31504;51.716;9.184;2024-02-23T13:03:09;21.80;48.00
45803;DHT22;31504;51.716;9.184;2024-02-23T13:06:09;21.70;48.00
45803;DHT22;31504;51.716;9.184;2024-02-23T13:09:10;21.70;48.00
45803;DHT22;31504;51.716;9.184;2024-02-23T13:12:12;21.70;48.10
45803;DHT22;31504;51.716;9.184;2024-02-23T13:15:13;21.70;48.20
45803;DHT22;31504;51.716;9.184;2024-02-23T13:18:14;21.60;48.20
45803;DHT22;31504;51.716;9.184;2024-02-23T13:21:15;21.60;48.20
45803;DHT22;31504;51.716;9.184;2024-02-23T13:24:15;21.60;48.10
45803;DHT22;31504;51.716;9.184;2024-02-23T13:27:16;21.60;48.00
45803;DHT22;31504;51.716;9.184;2024-02-23T13:30:16;21.50;47.80
45803;DHT22;31504;51.716;9.184;2024-02-23T13:33:17;21.50;47.70
45803;DHT22;31504;51.716;9.184;2024-02-23T13:36:19;21.50;47.60
45803;DHT22;31504;51.716;9.184;2024-02-23T13:39:20;21.50;47.70
45803;DHT22;31504;51.716;9.184;2024-02-23T13:42:21;21.50;47.80
45803;DHT22;31504;51.716;9.184;2024-02-23T13:45:21;21.50;47.90
45803;DHT22;31504;51.716;9.184;2024-02-23T13:48:23;21.50;48.50
45803;DHT22;31504;51.716;9.184;2024-02-23T13:51:24;21.50;47.80
45803;DHT22;31504;51.716;9.184;2024-02-23T13:54:26;21.40;47.70
45803;DHT22;31504;51.716;9.184;2024-02-23T13:57:27;21.40;47.40
45803;DHT22;31504;51.716;9.184;2024-02-23T14:00:27;21.50;47.20
45803;DHT22;31504;51.716;9.184;2024-02-23T14:03:27;21.50;47.10
45803;DHT22;31504;51.716;9.184;2024-02-23T14:06:32;21.50;47.10
45803;DHT22;31504;51.716;9.184;2024-02-23T14:09:41;21.40;47.20
45803;DHT22;31504;51.716;9.184;2024-02-23T14:12:44;21.40;47.20
45803;DHT22;31504;51.716;9.184;2024-02-23T14:15:50;21.40;47.30
45803;DHT22;31504;51.716;9.184;2024-02-23T14:18:53;21.40;47.30
45803;DHT22;31504;51.716;9.184;2024-02-23T14:21:56;21.40;47.30
45803;DHT22;31504;51.716;9.184;2024-02-23T14:25:01;21.40;47.30
45803;DHT22;31504;51.716;9.184;2024-02-23T14:28:02;21.40;47.30
45803;DHT22;31504;51.716;9.184;2024-02-23T14:31:08;21.40;47.30
45803;DHT22;31504;51.716;9.184;2024-02-23T14:34:13;21.50;47.30
45803;DHT22;31504;51.716;9.184;2024-02-23T14:37:19;21.40;47.20
45803;DHT22;31504;51.716;9.184;2024-02-23T14:40:28;21.40;47.30
45803;DHT22;31504;51.716;9.184;2024-02-23T14:43:41;21.40;47.00
45803;DHT22;31504;51.716;9.184;2024-02-23T14:46:44;21.40;46.80
45803;DHT22;31504;51.716;9.184;2024-02-23T14:49:47;21.40;46.60
45803;DHT22;31504;51.716;9.184;2024-02-23T14:52:49;21.40;46.60
45803;DHT22;31504;51.716;9.184;2024-02-23T14:55:50;21.40;46.60
45803;DHT22;31504;51.716;9.184;2024-02-23T14:58:56;21.50;46.70
45803;DHT22;31504;51.716;9.184;2024-02-23T15:01:58;21.50;46.70
45803;DHT22;31504;51.716;9.184;2024-02-23T15:05:01;21.50;46.80
45803;DHT22;31504;51.716;9.184;2024-02-23T15:08:01;21.50;46.80
45803;DHT22;31504;51.716;9.184;2024-02-23T15:11:03;21.40;46.90
45803;DHT22;31504;51.716;9.184;2024-02-23T15:14:17;21.40;47.00
45803;DHT22;31504;51.716;9.184;2024-02-23T15:17:20;21.40;47.10
45803;DHT22;31504;51.716;9.184;2024-02-23T15:23:24;21.40;47.10
45803;DHT22;31504;51.716;9.184;2024-02-23T15:26:25;21.40;47.10
45803;DHT22;31504;51.716;9.184;2024-02-23T15:29:25;21.50;47.10
45803;DHT22;31504;51.716;9.184;2024-02-23T15:32:26;21.50;47.10
45803;DHT22;31504;51.716;9.184;2024-02-23T15:35:26;21.50;47.10
45803;DHT22;31504;51.716;9.184;2024-02-23T15:38:35;21.50;47.20
45803;DHT22;31504;51.716;9.184;2024-02-23T15:41:39;21.50;47.20
45803;DHT22;31504;51.716;9.184;2024-02-23T15:44:46;21.50;47.30
45803;DHT22;31504;51.716;9.184;2024-02-23T15:47:46;21.40;47.30
45803;DHT22;31504;51.716;9.184;2024-02-23T15:50:48;21.40;47.30
45803;DHT22;31504;51.716;9.184;2024-02-23T15:53:50;21.40;47.40
45803;DHT22;31504;51.716;9.184;2024-02-23T15:56:50;21.40;47.60
45803;DHT22;31504;51.716;9.184;2024-02-23T15:59:51;21.50;47.70
45803;DHT22;31504;51.716;9.184;2024-02-23T16:02:53;21.50;47.80
45803;DHT22;31504;51.716;9.184;2024-02-23T16:05:55;21.50;47.90
45803;DHT22;31504;51.716;9.184;2024-02-23T16:08:55;21.50;48.10
45803;DHT22;31504;51.716;9.184;2024-02-23T16:11:56;21.50;48.10
45803;DHT22;31504;51.716;9.184;2024-02-23T16:14:57;21.50;48.20
45803;DHT22;31504;51.716;9.184;2024-02-23T16:17:58;21.40;48.20
45803;DHT22;31504;51.716;9.184;2024-02-23T16:21:00;21.50;48.30
45803;DHT22;31504;51.716;9.184;2024-02-23T16:24:01;21.40;48.30
45803;DHT22;31504;51.716;9.184;2024-02-23T16:27:14;21.40;48.40
45803;DHT22;31504;51.716;9.184;2024-02-23T16:30:17;21.40;48.40
45803;DHT22;31504;51.716;9.184;2024-02-23T16:33:18;21.50;48.40
45803;DHT22;31504;51.716;9.184;2024-02-23T16:36:20;21.50;48.40
45803;DHT22;31504;51.716;9.184;2024-02-23T16:39:22;21.50;48.60
45803;DHT22;31504;51.716;9.184;2024-02-23T16:42:24;21.50;48.70
45803;DHT22;31504;51.716;9.184;2024-02-23T16:45:31;21.40;48.70
45803;DHT22;31504;51.716;9.184;2024-02-23T16:48:35;21.40;49.00
45803;DHT22;31504;51.716;9.184;2024-02-23T16:51:36;21.40;49.20
45803;DHT22;31504;51.716;9.184;2024-02-23T16:54:36;21.40;49.30
45803;DHT22;31504;51.716;9.184;2024-02-23T16:57:37;21.40;49.40
45803;DHT22;31504;51.716;9.184;2024-02-23T17:00:43;21.40;49.50
45803;DHT22;31504;51.716;9.184;2024-02-23T17:03:43;21.40;49.60
45803;DHT22;31504;51.716;9.184;2024-02-23T17:06:44;21.40;49.80
45803;DHT22;31504;51.716;9.184;2024-02-23T17:09:45;21.50;49.90
45803;DHT22;31504;51.716;9.184;2024-02-23T17:13:03;21.40;50.10
45803;DHT22;31504;51.716;9.184;2024-02-23T17:16:10;21.50;50.30
45803;DHT22;31504;51.716;9.184;2024-02-23T17:19:12;21.50;50.60
45803;DHT22;31504;51.716;9.184;2024-02-23T17:22:13;21.40;50.70
45803;DHT22;31504;51.716;9.184;2024-02-23T17:25:17;21.40;50.80
45803;DHT22;31504;51.716;9.184;2024-02-23T17:28:18;21.40;50.80
45803;DHT22;31504;51.716;9.184;2024-02-23T17:31:20;21.40;50.80
45803;DHT22;31504;51.716;9.184;2024-02-23T17:34:22;21.50;50.90
45803;DHT22;31504;51.716;9.184;2024-02-23T17:37:22;21.50;50.80
45803;DHT22;31504;51.716;9.184;2024-02-23T17:40:25;21.50;50.70
45803;DHT22;31504;51.716;9.184;2024-02-23T17:43:30;21.40;50.40
45803;DHT22;31504;51.716;9.184;2024-02-23T17:46:31;21.50;50.30
45803;DHT22;31504;51.716;9.184;2024-02-23T17:49:34;21.50;50.20
45803;DHT22;31504;51.716;9.184;2024-02-23T17:52:36;21.50;50.30
45803;DHT22;31504;51.716;9.184;2024-02-23T17:55:37;21.40;50.40
45803;DHT22;31504;51.716;9.184;2024-02-23T17:58:39;21.40;50.50
45803;DHT22;31504;51.716;9.184;2024-02-23T18:01:39;21.50;50.50
45803;DHT22;31504;51.716;9.184;2024-02-23T18:04:47;21.40;50.70
45803;DHT22;31504;51.716;9.184;2024-02-23T18:07:48;21.50;51.30
45803;DHT22;31504;51.716;9.184;2024-02-23T18:10:51;21.50;50.60
45803;DHT22;31504;51.716;9.184;2024-02-23T18:13:52;21.50;50.60
45803;DHT22;31504;51.716;9.184;2024-02-23T18:16:57;21.40;50.80
45803;DHT22;31504;51.716;9.184;2024-02-23T18:20:01;21.40;50.80
45803;DHT22;31504;51.716;9.184;2024-02-23T18:23:02;21.40;51.00
45803;DHT22;31504;51.716;9.184;2024-02-23T18:26:03;21.40;51.00
45803;DHT22;31504;51.716;9.184;2024-02-23T18:29:03;21.40;51.30
45803;DHT22;31504;51.716;9.184;2024-02-23T18:32:04;21.40;51.60
45803;DHT22;31504;51.716;9.184;2024-02-23T18:35:07;21.40;51.70
45803;DHT22;31504;51.716;9.184;2024-02-23T18:38:08;21.50;51.60
45803;DHT22;31504;51.716;9.184;2024-02-23T18:41:11;21.50;51.70
45803;DHT22;31504;51.716;9.184;2024-02-23T18:44:16;21.40;51.60
45803;DHT22;31504;51.716;9.184;2024-02-23T18:47:33;21.40;51.40
45803;DHT22;31504;51.716;9.184;2024-02-23T18:50:36;21.40;51.20
45803;DHT22;31504;51.716;9.184;2024-02-23T18:53:38;21.40;51.10
45803;DHT22;31504;51.716;9.184;2024-02-23T18:56:40;21.40;51.00
45803;DHT22;31504;51.716;9.184;2024-02-23T18:59:41;21.40;51.10
45803;DHT22;31504;51.716;9.184;2024-02-23T19:02:55;21.40;51.30
45803;DHT22;31504;51.716;9.184;2024-02-23T19:05:55;21.40;51.40
45803;DHT22;31504;51.716;9.184;2024-02-23T19:08:59;21.40;51.40